createdAt,value
2022-09-23T00:02:23.463Z,13.10
2022-09-23T00:05:58.961Z,12.60
2022-09-23T00:09:30.168Z,12.20
2022-09-23T00:13:33.884Z,11.90
2022-09-23T00:17:18.728Z,12.00
2022-09-23T00:21:15.540Z,11.50
2022-09-23T00:24:59.144Z,12.60
2022-09-23T00:28:35.835Z,11.00
2022-09-23T00:32:00.427Z,12.00
2022-09-23T00:35:44.780Z,10.80
2022-09-23T00:39:38.378Z,11.20
2022-09-23T00:43:51.323Z,11.20
2022-09-23T00:47:40.216Z,11.00
2022-09-23T00:51:44.024Z,13.60
2022-09-23T00:55:36.437Z,11.40
2022-09-23T00:59:31.827Z,10.50
2022-09-23T01:03:35.571Z,12.60
2022-09-23T01:07:17.066Z,11.20
2022-09-23T01:11:20.780Z,11.10
2022-09-23T01:15:39.954Z,9.60
2022-09-23T01:19:45.928Z,9.20
2022-09-23T01:23:28.115Z,8.80
2022-09-23T01:27:14.810Z,9.60
2022-09-23T01:31:10.384Z,8.20
2022-09-23T01:35:29.077Z,8.30
2022-09-23T01:39:13.626Z,9.20
2022-09-23T01:43:26.587Z,9.30
2022-09-23T01:47:31.655Z,8.80
2022-09-23T01:51:10.660Z,9.90
2022-09-23T01:55:26.386Z,7.20
2022-09-23T01:59:21.328Z,8.80
2022-09-23T02:03:23.677Z,7.80
2022-09-23T02:07:26.938Z,7.20
2022-09-23T02:11:36.598Z,7.80
2022-09-23T02:15:34.636Z,7.80
2022-09-23T02:19:32.440Z,8.70
2022-09-23T02:23:42.161Z,7.40
2022-09-23T02:27:44.495Z,6.90
2022-09-23T02:31:42.300Z,7.70
2022-09-23T02:35:50.392Z,7.90
2022-09-23T02:39:38.465Z,6.90
2022-09-23T02:43:27.630Z,6.90
2022-09-23T02:47:14.371Z,6.50
2022-09-23T02:51:16.115Z,6.30
2022-09-23T02:55:19.221Z,6.90
2022-09-23T02:59:23.118Z,6.70
2022-09-23T03:03:17.886Z,6.90
2022-09-23T03:07:11.908Z,7.70
2022-09-23T03:11:17.602Z,6.60
2022-09-23T03:15:29.535Z,6.70
2022-09-23T03:19:32.807Z,7.10
2022-09-23T03:23:24.211Z,7.00
2022-09-23T03:27:29.591Z,6.60
2022-09-23T03:31:15.373Z,6.40
2022-09-23T03:35:19.119Z,7.10
2022-09-23T03:39:14.132Z,6.90
2022-09-23T03:43:12.130Z,7.20
2022-09-23T03:47:12.004Z,6.70
2022-09-23T03:51:08.948Z,7.30
2022-09-23T03:55:05.871Z,6.30
2022-09-23T03:58:54.398Z,6.80
2022-09-23T04:02:58.398Z,6.80
2022-09-23T04:06:44.717Z,6.50
2022-09-23T04:10:20.316Z,7.30
2022-09-23T04:14:17.414Z,7.00
2022-09-23T04:18:14.331Z,6.30
2022-09-23T04:22:18.327Z,6.70
2022-09-23T04:26:25.123Z,7.00
2022-09-23T04:30:21.099Z,7.30
2022-09-23T04:34:16.053Z,9.20
2022-09-23T04:38:13.930Z,9.40
2022-09-23T04:42:10.344Z,9.30
2022-09-23T04:46:14.103Z,12.00
2022-09-23T04:50:08.012Z,10.80
2022-09-23T04:53:55.544Z,10.90
2022-09-23T04:57:48.806Z,11.30
2022-09-23T05:01:56.859Z,10.80
2022-09-23T05:06:00.647Z,11.30
2022-09-23T05:09:58.750Z,11.30
2022-09-23T05:14:02.171Z,12.30
2022-09-23T05:17:56.778Z,10.30
2022-09-23T05:22:00.534Z,12.00
2022-09-23T05:25:40.029Z,11.70
2022-09-23T05:29:37.536Z,11.90
2022-09-23T05:33:20.825Z,11.70
2022-09-23T05:36:45.408Z,11.80
2022-09-23T05:40:31.814Z,12.10
2022-09-23T05:44:35.617Z,12.80
2022-09-23T05:48:39.410Z,13.10
2022-09-23T05:52:16.314Z,14.80
2022-09-23T05:56:13.732Z,14.00
2022-09-23T06:00:11.963Z,17.20
2022-09-23T06:03:45.590Z,16.40
2022-09-23T06:07:41.281Z,18.90
2022-09-23T06:11:37.134Z,19.10
2022-09-23T06:15:21.909Z,20.80
2022-09-23T06:19:11.621Z,21.80
2022-09-23T06:22:20.874Z,21.50
2022-09-23T06:26:00.901Z,22.70
2022-09-23T06:29:47.237Z,24.80
2022-09-23T06:33:43.725Z,23.70
2022-09-23T06:37:17.576Z,24.90
2022-09-23T06:40:47.479Z,23.70
2022-09-23T06:44:22.635Z,22.20
2022-09-23T06:48:01.502Z,22.00
2022-09-23T06:51:39.049Z,19.90
2022-09-23T06:55:36.175Z,19.90
2022-09-23T06:59:39.941Z,18.50
2022-09-23T07:03:03.579Z,17.80
2022-09-23T07:06:44.152Z,13.30
2022-09-23T07:09:54.767Z,13.40
2022-09-23T07:13:41.040Z,11.10
2022-09-23T07:17:30.682Z,10.10
2022-09-23T07:20:37.797Z,10.40
2022-09-23T07:24:12.537Z,12.00
2022-09-23T07:27:31.268Z,13.70
2022-09-23T07:31:32.589Z,11.70
2022-09-23T07:34:51.122Z,12.60
2022-09-23T07:38:34.650Z,10.00
2022-09-23T07:41:48.272Z,10.30
2022-09-23T07:45:29.756Z,12.00
2022-09-23T07:49:05.042Z,15.60
2022-09-23T07:52:10.953Z,14.30
2022-09-23T07:56:04.736Z,14.40
2022-09-23T07:59:29.258Z,14.10
2022-09-23T08:03:05.797Z,12.50
2022-09-23T08:07:01.122Z,12.30
2022-09-23T08:10:52.305Z,12.80
2022-09-23T08:14:56.189Z,13.40
2022-09-23T08:18:42.630Z,14.60
2022-09-23T08:22:18.824Z,12.40
2022-09-23T08:26:19.949Z,13.00
2022-09-23T08:30:05.878Z,9.40
2022-09-23T08:33:49.336Z,9.70
2022-09-23T08:37:12.896Z,8.80
2022-09-23T08:41:12.781Z,8.50
2022-09-23T08:45:03.530Z,7.70
2022-09-23T08:48:56.317Z,7.00
2022-09-23T08:52:55.688Z,7.60
2022-09-23T08:56:52.935Z,7.10
2022-09-23T09:00:46.653Z,5.90
2022-09-23T09:08:24.969Z,5.60
2022-09-23T09:12:19.503Z,5.20
2022-09-23T09:16:13.863Z,5.60
2022-09-23T09:19:55.396Z,5.00
2022-09-23T09:23:49.508Z,5.30
2022-09-23T09:27:33.556Z,4.80
2022-09-23T09:30:50.792Z,5.10
2022-09-23T09:34:16.135Z,4.90
2022-09-23T09:38:22.336Z,5.30
2022-09-23T09:42:10.747Z,3.90
2022-09-23T09:45:59.271Z,3.10
2022-09-23T09:49:55.971Z,3.30
2022-09-23T09:54:00.857Z,2.80
2022-09-23T09:57:44.768Z,2.60
2022-09-23T10:01:46.326Z,2.20
2022-09-23T10:05:16.270Z,3.10
2022-09-23T10:09:19.899Z,3.20
2022-09-23T10:13:12.861Z,3.10
2022-09-23T10:17:09.302Z,2.40
2022-09-23T10:21:04.313Z,1.60
2022-09-23T10:24:21.611Z,1.90
2022-09-23T10:28:02.611Z,1.50
2022-09-23T10:32:06.949Z,2.10
2022-09-23T10:35:38.140Z,2.70
2022-09-23T10:39:19.530Z,2.20
2022-09-23T10:43:33.687Z,2.10
2022-09-23T10:46:52.118Z,1.70
2022-09-23T10:50:53.890Z,1.90
2022-09-23T10:54:43.828Z,2.20
2022-09-23T10:58:40.963Z,2.40
2022-09-23T11:02:44.394Z,2.30
2022-09-23T11:06:53.428Z,2.30
2022-09-23T11:10:28.926Z,2.00
2022-09-23T11:14:22.965Z,1.90
2022-09-23T11:18:21.448Z,1.80
2022-09-23T11:21:54.477Z,1.80
2022-09-23T11:25:21.184Z,1.50
2022-09-23T11:29:21.714Z,1.80
2022-09-23T11:33:15.193Z,1.50
2022-09-23T11:36:47.657Z,1.50
2022-09-23T11:40:19.194Z,2.20
2022-09-23T11:43:59.857Z,1.80
2022-09-23T11:47:19.642Z,1.80
2022-09-23T11:50:56.041Z,1.50
2022-09-23T11:54:21.068Z,1.30
2022-09-23T11:58:22.490Z,1.40
2022-09-23T12:01:53.300Z,1.60
2022-09-23T12:05:45.972Z,1.50
2022-09-23T12:09:47.159Z,1.60
2022-09-23T12:13:16.361Z,1.50
2022-09-23T12:17:27.157Z,1.10
2022-09-23T12:21:45.776Z,1.00
2022-09-23T12:25:35.347Z,1.60
2022-09-23T12:29:08.839Z,1.20
2022-09-23T12:36:43.142Z,1.70
2022-09-23T12:43:51.663Z,1.70
2022-09-23T12:47:36.369Z,1.60
2022-09-23T12:51:16.476Z,1.50
2022-09-23T12:54:44.516Z,1.70
2022-09-23T12:58:24.721Z,2.10
2022-09-23T13:01:36.346Z,1.70
2022-09-23T13:05:38.719Z,1.40
2022-09-23T13:08:58.156Z,2.10
2022-09-23T13:12:16.834Z,1.60
2022-09-23T13:15:52.332Z,1.50
2022-09-23T13:19:16.548Z,1.60
2022-09-23T13:23:20.291Z,1.60
2022-09-23T13:26:54.750Z,1.40
2022-09-23T13:30:25.062Z,1.60
2022-09-23T13:34:01.263Z,1.50
2022-09-23T13:37:36.247Z,1.90
2022-09-23T13:41:13.992Z,1.80
2022-09-23T13:44:53.798Z,1.40
2022-09-23T13:48:42.724Z,1.50
2022-09-23T13:52:29.517Z,1.70
2022-09-23T13:56:01.522Z,2.00
2022-09-23T14:00:19.121Z,1.80
2022-09-23T14:04:29.280Z,1.80
2022-09-23T14:08:22.949Z,2.30
2022-09-23T14:11:59.180Z,1.90
2022-09-23T14:15:45.708Z,2.00
2022-09-23T14:19:49.462Z,2.10
2022-09-23T14:23:32.138Z,2.00
2022-09-23T14:27:19.409Z,1.60
2022-09-23T14:31:11.970Z,1.60
2022-09-23T14:35:22.619Z,1.80
2022-09-23T14:39:13.524Z,2.00
2022-09-23T14:42:40.162Z,2.10
2022-09-23T14:46:00.901Z,2.60
2022-09-23T14:49:55.505Z,2.00
2022-09-23T14:53:44.175Z,2.80
2022-09-23T14:57:10.642Z,2.90
2022-09-23T15:00:38.895Z,2.40
2022-09-23T15:03:54.401Z,2.40
2022-09-23T15:07:41.679Z,8.20
2022-09-23T15:10:46.844Z,9.20
2022-09-23T15:14:37.168Z,3.20
2022-09-23T15:17:48.244Z,2.40
2022-09-23T15:21:40.215Z,2.40
2022-09-23T15:25:35.832Z,3.50
2022-09-23T15:29:39.779Z,3.00
2022-09-23T15:33:30.310Z,3.10
2022-09-23T15:37:36.336Z,5.00
2022-09-23T15:41:12.477Z,3.80
2022-09-23T15:44:57.026Z,2.80
2022-09-23T15:48:35.894Z,2.60
2022-09-23T15:52:28.594Z,2.30
2022-09-23T15:56:03.614Z,2.90
2022-09-23T15:59:59.069Z,2.50
2022-09-23T16:03:45.396Z,3.20
2022-09-23T16:07:49.310Z,3.10
2022-09-23T16:11:48.517Z,3.00
2022-09-23T16:15:39.656Z,3.40
2022-09-23T16:19:43.439Z,3.60
2022-09-23T16:23:47.303Z,3.60
2022-09-23T16:27:40.967Z,5.30
2022-09-23T16:31:27.295Z,4.70
2022-09-23T16:35:25.130Z,4.60
2022-09-23T16:39:11.723Z,5.60
2022-09-23T16:42:56.721Z,7.50
2022-09-23T16:46:53.216Z,8.40
2022-09-23T16:50:44.412Z,8.40
2022-09-23T16:54:37.441Z,9.30
2022-09-23T16:58:31.185Z,10.50
2022-09-23T17:02:08.222Z,11.70
2022-09-23T17:05:56.765Z,13.30
2022-09-23T17:09:12.017Z,13.70
2022-09-23T17:13:18.758Z,13.90
2022-09-23T17:17:05.072Z,13.70
2022-09-23T17:20:48.863Z,12.50
2022-09-23T17:24:35.255Z,12.80
2022-09-23T17:28:38.999Z,13.00
2022-09-23T17:32:32.815Z,15.70
2022-09-23T17:36:19.591Z,17.20
2022-09-23T17:40:16.770Z,16.60
2022-09-23T17:44:00.923Z,16.60
2022-09-23T17:47:49.386Z,15.10
2022-09-23T17:51:46.485Z,14.30
2022-09-23T17:55:02.870Z,13.30
2022-09-23T17:58:54.490Z,13.90
2022-09-23T18:02:41.279Z,13.80
2022-09-23T18:06:47.766Z,16.90
2022-09-23T18:10:51.614Z,20.20
2022-09-23T18:14:21.420Z,21.80
2022-09-23T18:17:57.774Z,24.40
2022-09-23T18:22:01.681Z,24.40
2022-09-23T18:26:05.887Z,23.40
2022-09-23T18:30:10.045Z,23.00
2022-09-23T18:34:13.946Z,26.10
2022-09-23T18:38:04.885Z,31.10
2022-09-23T18:41:38.651Z,43.00
2022-09-23T18:45:35.481Z,41.80
2022-09-23T18:49:37.675Z,42.60
2022-09-23T18:53:30.709Z,44.10
2022-09-23T18:57:25.062Z,46.50
2022-09-23T19:01:20.481Z,45.90
2022-09-23T19:05:07.564Z,50.90
2022-09-23T19:09:06.233Z,51.60
2022-09-23T19:12:41.531Z,57.50
2022-09-23T19:16:21.076Z,68.10
2022-09-23T19:20:18.066Z,67.30
2022-09-23T19:24:24.801Z,70.80
2022-09-23T19:28:08.472Z,72.40
2022-09-23T19:32:05.754Z,71.60
2022-09-23T19:36:09.531Z,82.40
2022-09-23T19:40:13.267Z,78.60
2022-09-23T19:44:10.200Z,85.60
2022-09-23T19:48:07.101Z,87.20
2022-09-23T19:52:11.063Z,81.30
2022-09-23T19:56:15.231Z,77.50
2022-09-23T20:00:19.173Z,71.10
2022-09-23T20:04:23.101Z,69.80
2022-09-23T20:08:21.856Z,70.90
2022-09-23T20:12:25.662Z,66.50
2022-09-23T20:16:12.198Z,66.50
2022-09-23T20:20:16.257Z,60.90
2022-09-23T20:24:00.715Z,62.40
2022-09-23T20:28:04.511Z,61.50
2022-09-23T20:32:08.329Z,62.70
2022-09-23T20:36:12.123Z,56.50
2022-09-23T20:40:01.975Z,50.40
2022-09-23T20:44:05.872Z,47.10
2022-09-23T20:48:09.687Z,39.40
2022-09-23T20:52:02.934Z,40.30
2022-09-23T20:56:06.874Z,36.80
2022-09-23T21:00:03.846Z,33.20
2022-09-23T21:04:00.209Z,31.50
2022-09-23T21:08:04.127Z,29.60
2022-09-23T21:12:08.675Z,27.70
2022-09-23T21:16:12.638Z,28.90
2022-09-23T21:20:16.566Z,25.60
2022-09-23T21:28:10.036Z,27.20
2022-09-23T21:31:49.837Z,26.10
2022-09-23T21:35:55.047Z,24.90
2022-09-23T21:39:45.631Z,26.30
2022-09-23T21:43:30.931Z,24.40
2022-09-23T21:47:10.969Z,24.90
2022-09-23T21:51:14.803Z,24.90
2022-09-23T21:55:18.723Z,23.50
2022-09-23T21:59:05.161Z,23.50
2022-09-23T22:03:08.877Z,23.60
2022-09-23T22:06:54.590Z,23.60
2022-09-23T22:10:57.043Z,22.70
2022-09-23T22:14:41.334Z,24.00
2022-09-23T22:18:34.916Z,24.40
2022-09-23T22:22:28.710Z,24.40
2022-09-23T22:26:25.393Z,24.90
2022-09-23T22:30:27.408Z,24.90
2022-09-23T22:34:03.942Z,24.30
2022-09-23T22:38:07.940Z,24.70
2022-09-23T22:41:52.604Z,22.90
2022-09-23T22:45:39.301Z,20.70
2022-09-23T22:49:44.155Z,22.70
2022-09-23T22:53:47.847Z,20.50
2022-09-23T22:57:21.674Z,20.50
2022-09-23T23:01:25.762Z,19.60
2022-09-23T23:05:29.951Z,19.90
2022-09-23T23:09:12.673Z,20.40
2022-09-23T23:12:58.672Z,21.30
2022-09-23T23:16:55.180Z,19.10
2022-09-23T23:20:58.833Z,18.60
2022-09-23T23:24:55.848Z,20.30
2022-09-23T23:28:17.985Z,20.50
2022-09-23T23:32:11.736Z,20.00
2022-09-23T23:35:49.562Z,19.90
2022-09-23T23:39:15.902Z,20.30
2022-09-23T23:42:41.481Z,21.50
2022-09-23T23:46:40.658Z,19.50
2022-09-23T23:50:44.488Z,20.30
2022-09-23T23:54:36.832Z,20.40
2022-09-23T23:58:34.686Z,20.90
